sensor_id;sensor_type;location;lat;lon;timestamp;pressure;altitude;pressure_sealevel;temperature;humidity
61026;BME280;46911;32.650;-16.902;2023-01-16T00:01:24;102818.03;;;16.62;63.50
61026;BME280;46911;32.650;-16.902;2023-01-16T00:03:28;102813.34;;;16.65;63.31
61026;BME280;46911;32.650;-16.902;2023-01-16T00:05:31;102820.28;;;16.69;62.35
61026;BME280;46911;32.650;-16.902;2023-01-16T00:07:32;102799.97;;;16.64;61.44
61026;BME280;46911;32.650;-16.902;2023-01-16T00:09:35;102795.63;;;16.61;61.79
61026;BME280;46911;32.650;-16.902;2023-01-16T00:11:39;102792.94;;;16.61;62.73
61026;BME280;46911;32.650;-16.902;2023-01-16T00:13:40;102789.66;;;16.56;63.11
61026;BME280;46911;32.650;-16.902;2023-01-16T00:15:46;102803.81;;;16.60;63.20
61026;BME280;46911;32.650;-16.902;2023-01-16T00:17:49;102790.50;;;16.56;63.50
61026;BME280;46911;32.650;-16.902;2023-01-16T00:19:50;102783.84;;;16.48;64.06
61026;BME280;46911;32.650;-16.902;2023-01-16T00:21:51;102782.97;;;16.47;64.85
61026;BME280;46911;32.650;-16.902;2023-01-16T00:23:57;102783.56;;;16.52;65.08
61026;BME280;46911;32.650;-16.902;2023-01-16T00:26:04;102786.75;;;16.59;64.91
61026;BME280;46911;32.650;-16.902;2023-01-16T00:28:12;102790.41;;;16.58;64.98
61026;BME280;46911;32.650;-16.902;2023-01-16T00:30:16;102793.03;;;16.60;65.33
61026;BME280;46911;32.650;-16.902;2023-01-16T00:32:17;102788.50;;;16.60;65.64
61026;BME280;46911;32.650;-16.902;2023-01-16T00:34:22;102772.88;;;16.51;65.84
61026;BME280;46911;32.650;-16.902;2023-01-16T00:36:28;102783.34;;;16.41;66.19
61026;BME280;46911;32.650;-16.902;2023-01-16T00:38:32;102754.94;;;16.21;66.43
61026;BME280;46911;32.650;-16.902;2023-01-16T00:40:40;102772.44;;;16.28;67.26
61026;BME280;46911;32.650;-16.902;2023-01-16T00:42:43;102779.03;;;16.38;67.70
61026;BME280;46911;32.650;-16.902;2023-01-16T00:44:44;102771.78;;;16.39;67.52
61026;BME280;46911;32.650;-16.902;2023-01-16T00:46:53;102761.97;;;16.38;67.71
61026;BME280;46911;32.650;-16.902;2023-01-16T00:48:59;102761.03;;;16.39;67.55
61026;BME280;46911;32.650;-16.902;2023-01-16T00:51:00;102777.09;;;16.40;67.63
61026;BME280;46911;32.650;-16.902;2023-01-16T00:53:01;102771.03;;;16.37;67.90
61026;BME280;46911;32.650;-16.902;2023-01-16T00:55:05;102781.25;;;16.46;67.85
61026;BME280;46911;32.650;-16.902;2023-01-16T00:57:08;102784.41;;;16.38;67.23
61026;BME280;46911;32.650;-16.902;2023-01-16T00:59:13;102765.72;;;16.35;67.02
61026;BME280;46911;32.650;-16.902;2023-01-16T01:01:14;102763.75;;;16.23;66.21
61026;BME280;46911;32.650;-16.902;2023-01-16T01:03:20;102757.66;;;16.05;65.78
61026;BME280;46911;32.650;-16.902;2023-01-16T01:05:21;102777.88;;;15.96;66.11
61026;BME280;46911;32.650;-16.902;2023-01-16T01:07:25;102771.63;;;15.80;66.63
61026;BME280;46911;32.650;-16.902;2023-01-16T01:09:29;102764.44;;;15.64;67.15
61026;BME280;46911;32.650;-16.902;2023-01-16T01:11:32;102761.31;;;15.56;67.61
61026;BME280;46911;32.650;-16.902;2023-01-16T01:13:33;102765.31;;;15.49;67.59
61026;BME280;46911;32.650;-16.902;2023-01-16T01:15:34;102758.91;;;15.51;67.74
61026;BME280;46911;32.650;-16.902;2023-01-16T01:17:35;102760.19;;;15.60;67.89
61026;BME280;46911;32.650;-16.902;2023-01-16T01:19:39;102762.69;;;15.79;67.49
61026;BME280;46911;32.650;-16.902;2023-01-16T01:21:40;102762.13;;;15.90;67.59
61026;BME280;46911;32.650;-16.902;2023-01-16T01:23:41;102761.84;;;15.95;67.35
61026;BME280;46911;32.650;-16.902;2023-01-16T01:25:47;102759.66;;;16.01;67.07
61026;BME280;46911;32.650;-16.902;2023-01-16T01:27:50;102754.88;;;16.06;66.65
61026;BME280;46911;32.650;-16.902;2023-01-16T01:29:51;102749.38;;;16.08;66.08
61026;BME280;46911;32.650;-16.902;2023-01-16T01:31:52;102742.72;;;15.99;66.24
61026;BME280;46911;32.650;-16.902;2023-01-16T01:33:53;102768.53;;;16.03;66.60
61026;BME280;46911;32.650;-16.902;2023-01-16T01:35:56;102766.59;;;15.89;66.92
61026;BME280;46911;32.650;-16.902;2023-01-16T01:37:59;102766.34;;;15.78;67.43
61026;BME280;46911;32.650;-16.902;2023-01-16T01:40:04;102770.00;;;15.61;67.92
61026;BME280;46911;32.650;-16.902;2023-01-16T01:42:05;102772.25;;;15.53;68.54
61026;BME280;46911;32.650;-16.902;2023-01-16T01:46:47;102764.16;;;15.37;69.51
61026;BME280;46911;32.650;-16.902;2023-01-16T01:48:51;102758.00;;;15.35;70.00
61026;BME280;46911;32.650;-16.902;2023-01-16T01:51:10;102754.28;;;15.37;70.40
61026;BME280;46911;32.650;-16.902;2023-01-16T01:53:29;102747.66;;;15.43;70.43
61026;BME280;46911;32.650;-16.902;2023-01-16T01:55:36;102753.41;;;15.53;70.34
61026;BME280;46911;32.650;-16.902;2023-01-16T01:57:44;102742.66;;;15.53;70.29
61026;BME280;46911;32.650;-16.902;2023-01-16T02:00:16;102746.28;;;15.68;70.13
61026;BME280;46911;32.650;-16.902;2023-01-16T02:02:16;102757.25;;;15.81;70.22
61026;BME280;46911;32.650;-16.902;2023-01-16T02:04:31;102752.41;;;15.87;70.15
61026;BME280;46911;32.650;-16.902;2023-01-16T02:06:42;102750.38;;;15.91;70.19
61026;BME280;46911;32.650;-16.902;2023-01-16T02:08:46;102760.09;;;15.94;69.97
61026;BME280;46911;32.650;-16.902;2023-01-16T02:13:01;102753.34;;;15.86;70.24
61026;BME280;46911;32.650;-16.902;2023-01-16T02:15:05;102761.66;;;15.82;70.56
61026;BME280;46911;32.650;-16.902;2023-01-16T02:17:14;102754.59;;;15.79;71.02
61026;BME280;46911;32.650;-16.902;2023-01-16T02:33:21;102755.66;;;15.13;73.04
61026;BME280;46911;32.650;-16.902;2023-01-16T02:38:07;102755.38;;;15.17;73.28
61026;BME280;46911;32.650;-16.902;2023-01-16T02:40:20;102754.16;;;15.23;72.95
61026;BME280;46911;32.650;-16.902;2023-01-16T02:42:32;102731.88;;;15.21;72.99
61026;BME280;46911;32.650;-16.902;2023-01-16T02:44:47;102738.31;;;15.34;72.55
61026;BME280;46911;32.650;-16.902;2023-01-16T02:49:08;102746.53;;;15.47;72.55
61026;BME280;46911;32.650;-16.902;2023-01-16T02:51:41;102735.88;;;15.46;72.34
61026;BME280;46911;32.650;-16.902;2023-01-16T02:56:11;102747.84;;;15.56;72.13
61026;BME280;46911;32.650;-16.902;2023-01-16T02:58:21;102748.03;;;15.53;71.79
61026;BME280;46911;32.650;-16.902;2023-01-16T03:00:22;102746.63;;;15.46;71.92
61026;BME280;46911;32.650;-16.902;2023-01-16T03:02:24;102733.13;;;15.31;71.96
61026;BME280;46911;32.650;-16.902;2023-01-16T03:04:47;102745.78;;;15.29;72.20
61026;BME280;46911;32.650;-16.902;2023-01-16T03:07:02;102747.22;;;15.19;72.44
61026;BME280;46911;32.650;-16.902;2023-01-16T03:09:17;102745.75;;;15.13;72.55
61026;BME280;46911;32.650;-16.902;2023-01-16T03:11:25;102750.41;;;15.10;72.67
61026;BME280;46911;32.650;-16.902;2023-01-16T03:13:35;102752.34;;;15.07;72.77
61026;BME280;46911;32.650;-16.902;2023-01-16T03:16:01;102749.47;;;15.11;72.76
61026;BME280;46911;32.650;-16.902;2023-01-16T03:18:29;102745.94;;;15.10;72.72
61026;BME280;46911;32.650;-16.902;2023-01-16T03:25:38;102746.97;;;15.07;72.60
61026;BME280;46911;32.650;-16.902;2023-01-16T03:30:32;102748.69;;;15.09;72.56
61026;BME280;46911;32.650;-16.902;2023-01-16T03:32:44;102735.25;;;15.09;72.60
61026;BME280;46911;32.650;-16.902;2023-01-16T03:34:53;102736.97;;;15.10;72.68
61026;BME280;46911;32.650;-16.902;2023-01-16T03:39:08;102736.88;;;15.11;72.90
61026;BME280;46911;32.650;-16.902;2023-01-16T03:41:14;102748.34;;;15.15;72.94
61026;BME280;46911;32.650;-16.902;2023-01-16T03:43:35;102750.09;;;15.16;73.03
61026;BME280;46911;32.650;-16.902;2023-01-16T03:45:41;102748.97;;;15.20;72.92
61026;BME280;46911;32.650;-16.902;2023-01-16T03:47:51;102734.81;;;15.16;72.81
61026;BME280;46911;32.650;-16.902;2023-01-16T03:50:02;102749.41;;;15.28;72.12
61026;BME280;46911;32.650;-16.902;2023-01-16T03:52:06;102734.31;;;15.26;71.78
61026;BME280;46911;32.650;-16.902;2023-01-16T03:56:46;102747.94;;;15.38;71.26
61026;BME280;46911;32.650;-16.902;2023-01-16T03:58:50;102749.94;;;15.51;74.64
61026;BME280;46911;32.650;-16.902;2023-01-16T04:03:08;102742.91;;;15.64;73.96
61026;BME280;46911;32.650;-16.902;2023-01-16T04:05:29;102738.66;;;15.60;73.89
61026;BME280;46911;32.650;-16.902;2023-01-16T04:07:42;102747.69;;;15.59;74.15
61026;BME280;46911;32.650;-16.902;2023-01-16T04:09:50;102746.22;;;15.53;73.94
61026;BME280;46911;32.650;-16.902;2023-01-16T04:11:55;102731.72;;;15.40;74.10
61026;BME280;46911;32.650;-16.902;2023-01-16T04:14:01;102734.59;;;15.37;74.26
61026;BME280;46911;32.650;-16.902;2023-01-16T04:16:07;102744.13;;;15.27;74.60
61026;BME280;46911;32.650;-16.902;2023-01-16T04:18:09;102727.97;;;15.11;74.80
61026;BME280;46911;32.650;-16.902;2023-01-16T04:20:16;102746.59;;;15.14;75.00
61026;BME280;46911;32.650;-16.902;2023-01-16T04:22:28;102745.13;;;15.08;75.42
61026;BME280;46911;32.650;-16.902;2023-01-16T04:24:33;102729.22;;;14.87;75.73
61026;BME280;46911;32.650;-16.902;2023-01-16T04:26:33;102744.56;;;14.85;76.12
61026;BME280;46911;32.650;-16.902;2023-01-16T04:28:34;102728.06;;;14.76;76.66
61026;BME280;46911;32.650;-16.902;2023-01-16T04:30:35;102733.75;;;14.69;76.93
61026;BME280;46911;32.650;-16.902;2023-01-16T04:32:36;102737.34;;;14.70;77.33
61026;BME280;46911;32.650;-16.902;2023-01-16T04:34:38;102736.63;;;14.66;77.79
61026;BME280;46911;32.650;-16.902;2023-01-16T04:36:38;102742.19;;;14.62;78.13
61026;BME280;46911;32.650;-16.902;2023-01-16T04:38:39;102736.34;;;14.53;78.32
61026;BME280;46911;32.650;-16.902;2023-01-16T04:40:40;102742.69;;;14.52;78.50
61026;BME280;46911;32.650;-16.902;2023-01-16T04:42:41;102742.91;;;14.48;78.70
61026;BME280;46911;32.650;-16.902;2023-01-16T04:44:45;102729.66;;;14.45;78.75
61026;BME280;46911;32.650;-16.902;2023-01-16T04:46:46;102735.03;;;14.45;78.98
61026;BME280;46911;32.650;-16.902;2023-01-16T04:48:49;102732.34;;;14.45;78.83
61026;BME280;46911;32.650;-16.902;2023-01-16T04:50:50;102728.56;;;14.49;78.87
61026;BME280;46911;32.650;-16.902;2023-01-16T04:52:51;102727.63;;;14.50;78.86
61026;BME280;46911;32.650;-16.902;2023-01-16T04:54:51;102715.03;;;14.50;78.76
61026;BME280;46911;32.650;-16.902;2023-01-16T04:56:54;102732.56;;;14.57;78.71
61026;BME280;46911;32.650;-16.902;2023-01-16T04:59:01;102726.31;;;14.57;78.53
61026;BME280;46911;32.650;-16.902;2023-01-16T05:01:02;102713.38;;;14.48;78.67
61026;BME280;46911;32.650;-16.902;2023-01-16T05:03:03;102724.66;;;14.54;78.89
61026;BME280;46911;32.650;-16.902;2023-01-16T05:05:06;102715.22;;;14.47;79.02
61026;BME280;46911;32.650;-16.902;2023-01-16T05:07:07;102703.94;;;14.40;78.95
61026;BME280;46911;32.650;-16.902;2023-01-16T05:09:08;102713.56;;;14.45;79.14
61026;BME280;46911;32.650;-16.902;2023-01-16T05:11:09;102702.41;;;14.35;79.20
61026;BME280;46911;32.650;-16.902;2023-01-16T05:13:10;102701.81;;;14.30;79.28
61026;BME280;46911;32.650;-16.902;2023-01-16T05:15:11;102710.78;;;14.29;79.52
61026;BME280;46911;32.650;-16.902;2023-01-16T05:17:12;102715.06;;;14.33;79.66
61026;BME280;46911;32.650;-16.902;2023-01-16T05:19:12;102713.94;;;14.37;79.68
61026;BME280;46911;32.650;-16.902;2023-01-16T05:21:13;102720.97;;;14.39;79.32
61026;BME280;46911;32.650;-16.902;2023-01-16T05:23:14;102696.91;;;14.38;78.83
61026;BME280;46911;32.650;-16.902;2023-01-16T05:25:15;102701.16;;;14.42;78.77
61026;BME280;46911;32.650;-16.902;2023-01-16T05:27:16;102695.69;;;14.44;78.60
61026;BME280;46911;32.650;-16.902;2023-01-16T05:29:19;102702.56;;;14.49;78.32
61026;BME280;46911;32.650;-16.902;2023-01-16T05:31:25;102687.66;;;14.44;78.20
61026;BME280;46911;32.650;-16.902;2023-01-16T05:33:28;102701.69;;;14.49;78.13
61026;BME280;46911;32.650;-16.902;2023-01-16T05:35:32;102700.91;;;14.47;78.35
61026;BME280;46911;32.650;-16.902;2023-01-16T05:37:33;102687.19;;;14.35;78.24
61026;BME280;46911;32.650;-16.902;2023-01-16T05:39:36;102685.63;;;14.31;78.49
61026;BME280;46911;32.650;-16.902;2023-01-16T05:41:42;102703.94;;;14.40;78.62
61026;BME280;46911;32.650;-16.902;2023-01-16T05:43:43;102693.31;;;14.37;78.77
61026;BME280;46911;32.650;-16.902;2023-01-16T05:45:44;102704.06;;;14.37;78.76
61026;BME280;46911;32.650;-16.902;2023-01-16T05:47:45;102695.88;;;14.40;79.03
61026;BME280;46911;32.650;-16.902;2023-01-16T05:49:46;102702.19;;;14.39;78.87
61026;BME280;46911;32.650;-16.902;2023-01-16T05:51:49;102698.16;;;14.31;79.09
61026;BME280;46911;32.650;-16.902;2023-01-16T05:53:51;102709.78;;;14.31;79.08
61026;BME280;46911;32.650;-16.902;2023-01-16T05:55:52;102719.31;;;14.37;79.28
61026;BME280;46911;32.650;-16.902;2023-01-16T05:57:57;102715.69;;;14.38;79.39
61026;BME280;46911;32.650;-16.902;2023-01-16T06:00:00;102718.13;;;14.43;79.16
61026;BME280;46911;32.650;-16.902;2023-01-16T06:02:01;102710.97;;;14.43;79.02
61026;BME280;46911;32.650;-16.902;2023-01-16T06:04:02;102716.78;;;14.51;79.06
61026;BME280;46911;32.650;-16.902;2023-01-16T06:06:03;102724.34;;;14.61;78.97
61026;BME280;46911;32.650;-16.902;2023-01-16T06:08:04;102715.59;;;14.57;78.66
61026;BME280;46911;32.650;-16.902;2023-01-16T06:10:09;102706.28;;;14.64;78.44
61026;BME280;46911;32.650;-16.902;2023-01-16T06:12:19;102725.66;;;14.87;78.46
61026;BME280;46911;32.650;-16.902;2023-01-16T06:14:22;102724.31;;;14.96;78.20
61026;BME280;46911;32.650;-16.902;2023-01-16T06:16:26;102721.63;;;14.96;78.35
61026;BME280;46911;32.650;-16.902;2023-01-16T06:18:29;102731.97;;;15.03;78.35
61026;BME280;46911;32.650;-16.902;2023-01-16T06:20:30;102724.41;;;14.94;78.36
61026;BME280;46911;32.650;-16.902;2023-01-16T06:22:31;102732.72;;;15.05;78.32
61026;BME280;46911;32.650;-16.902;2023-01-16T06:24:35;102719.97;;;14.93;78.52
61026;BME280;46911;32.650;-16.902;2023-01-16T06:26:39;102729.06;;;14.90;79.08
61026;BME280;46911;32.650;-16.902;2023-01-16T06:28:40;102728.84;;;14.78;79.13
61026;BME280;46911;32.650;-16.902;2023-01-16T06:30:41;102742.63;;;14.71;79.47
61026;BME280;46911;32.650;-16.902;2023-01-16T06:32:47;102734.69;;;14.68;80.09
61026;BME280;46911;32.650;-16.902;2023-01-16T06:34:51;102748.75;;;14.73;80.53
61026;BME280;46911;32.650;-16.902;2023-01-16T06:36:56;102734.38;;;14.57;81.33
61026;BME280;46911;32.650;-16.902;2023-01-16T06:38:57;102720.31;;;14.52;81.19
61026;BME280;46911;32.650;-16.902;2023-01-16T06:40:58;102732.19;;;14.48;81.50
61026;BME280;46911;32.650;-16.902;2023-01-16T06:43:01;102741.25;;;14.45;81.94
61026;BME280;46911;32.650;-16.902;2023-01-16T06:45:05;102748.47;;;14.45;82.06
61026;BME280;46911;32.650;-16.902;2023-01-16T06:47:12;102738.19;;;14.35;82.30
61026;BME280;46911;32.650;-16.902;2023-01-16T06:49:15;102755.06;;;14.37;82.57
61026;BME280;46911;32.650;-16.902;2023-01-16T06:51:16;102750.91;;;14.32;82.85
61026;BME280;46911;32.650;-16.902;2023-01-16T06:53:19;102743.22;;;14.24;82.72
61026;BME280;46911;32.650;-16.902;2023-01-16T06:55:23;102750.03;;;14.31;83.19
61026;BME280;46911;32.650;-16.902;2023-01-16T06:57:23;102732.56;;;14.22;83.10
61026;BME280;46911;32.650;-16.902;2023-01-16T06:59:27;102739.78;;;14.22;83.34
61026;BME280;46911;32.650;-16.902;2023-01-16T07:01:27;102753.75;;;14.29;83.17
61026;BME280;46911;32.650;-16.902;2023-01-16T07:03:28;102752.88;;;14.28;83.39
61026;BME280;46911;32.650;-16.902;2023-01-16T07:05:30;102749.72;;;14.20;83.72
61026;BME280;46911;32.650;-16.902;2023-01-16T07:07:31;102744.97;;;14.25;84.34
61026;BME280;46911;32.650;-16.902;2023-01-16T07:09:35;102746.88;;;14.23;84.59
61026;BME280;46911;32.650;-16.902;2023-01-16T07:11:38;102744.34;;;14.20;84.87
61026;BME280;46911;32.650;-16.902;2023-01-16T07:13:39;102728.00;;;14.07;84.80
61026;BME280;46911;32.650;-16.902;2023-01-16T07:15:46;102744.34;;;14.20;85.32
61026;BME280;46911;32.650;-16.902;2023-01-16T07:18:11;102751.38;;;14.22;85.29
61026;BME280;46911;32.650;-16.902;2023-01-16T07:20:31;102743.69;;;14.15;85.46
61026;BME280;46911;32.650;-16.902;2023-01-16T07:22:50;102749.97;;;14.15;85.87
61026;BME280;46911;32.650;-16.902;2023-01-16T07:24:54;102760.81;;;14.12;86.01
61026;BME280;46911;32.650;-16.902;2023-01-16T07:26:58;102767.25;;;14.10;85.95
61026;BME280;46911;32.650;-16.902;2023-01-16T07:29:01;102745.91;;;14.06;86.14
61026;BME280;46911;32.650;-16.902;2023-01-16T07:31:07;102744.25;;;14.04;86.19
61026;BME280;46911;32.650;-16.902;2023-01-16T07:33:08;102762.91;;;14.07;86.22
61026;BME280;46911;32.650;-16.902;2023-01-16T07:35:09;102753.41;;;14.00;86.56
61026;BME280;46911;32.650;-16.902;2023-01-16T07:37:10;102747.94;;;14.01;86.75
61026;BME280;46911;32.650;-16.902;2023-01-16T07:39:11;102751.72;;;13.97;86.96
61026;BME280;46911;32.650;-16.902;2023-01-16T07:41:12;102765.63;;;14.05;87.32
61026;BME280;46911;32.650;-16.902;2023-01-16T07:43:16;102759.69;;;13.99;87.59
61026;BME280;46911;32.650;-16.902;2023-01-16T07:45:20;102766.03;;;13.98;87.67
61026;BME280;46911;32.650;-16.902;2023-01-16T07:47:21;102778.28;;;14.03;88.35
61026;BME280;46911;32.650;-16.902;2023-01-16T07:49:22;102774.69;;;14.03;88.40
61026;BME280;46911;32.650;-16.902;2023-01-16T07:51:24;102775.78;;;13.99;88.66
61026;BME280;46911;32.650;-16.902;2023-01-16T07:53:30;102753.53;;;13.79;88.81
61026;BME280;46911;32.650;-16.902;2023-01-16T07:55:31;102770.84;;;13.91;89.23
61026;BME280;46911;32.650;-16.902;2023-01-16T07:57:37;102777.34;;;13.85;89.35
61026;BME280;46911;32.650;-16.902;2023-01-16T07:59:43;102794.00;;;13.92;89.85
61026;BME280;46911;32.650;-16.902;2023-01-16T08:01:44;102790.38;;;13.93;90.13
61026;BME280;46911;32.650;-16.902;2023-01-16T08:03:47;102795.38;;;14.01;89.93
61026;BME280;46911;32.650;-16.902;2023-01-16T08:05:48;102788.19;;;14.01;89.85
61026;BME280;46911;32.650;-16.902;2023-01-16T08:07:52;102772.81;;;14.05;90.10
61026;BME280;46911;32.650;-16.902;2023-01-16T08:09:56;102783.50;;;14.24;89.89
61026;BME280;46911;32.650;-16.902;2023-01-16T08:12:00;102775.31;;;14.27;89.40
61026;BME280;46911;32.650;-16.902;2023-01-16T08:14:06;102789.97;;;14.37;88.67
61026;BME280;46911;32.650;-16.902;2023-01-16T08:16:09;102791.88;;;14.35;88.39
61026;BME280;46911;32.650;-16.902;2023-01-16T08:18:11;102785.25;;;14.25;88.17
61026;BME280;46911;32.650;-16.902;2023-01-16T08:20:13;102779.94;;;14.23;88.13
61026;BME280;46911;32.650;-16.902;2023-01-16T08:22:14;102796.06;;;14.23;88.21
61026;BME280;46911;32.650;-16.902;2023-01-16T08:24:14;102803.47;;;14.36;88.35
61026;BME280;46911;32.650;-16.902;2023-01-16T08:26:19;102799.69;;;14.40;87.73
61026;BME280;46911;32.650;-16.902;2023-01-16T08:28:20;102805.78;;;14.44;87.78
61026;BME280;46911;32.650;-16.902;2023-01-16T08:30:21;102800.13;;;14.50;87.46
61026;BME280;46911;32.650;-16.902;2023-01-16T08:32:25;102797.19;;;14.54;87.07
61026;BME280;46911;32.650;-16.902;2023-01-16T08:34:29;102801.81;;;14.70;86.43
61026;BME280;46911;32.650;-16.902;2023-01-16T08:36:29;102801.72;;;14.71;85.94
61026;BME280;46911;32.650;-16.902;2023-01-16T08:38:33;102803.38;;;14.74;85.76
61026;BME280;46911;32.650;-16.902;2023-01-16T08:40:36;102807.72;;;14.77;85.60
61026;BME280;46911;32.650;-16.902;2023-01-16T08:42:37;102815.53;;;14.81;85.27
61026;BME280;46911;32.650;-16.902;2023-01-16T08:44:56;102812.53;;;14.87;84.81
61026;BME280;46911;32.650;-16.902;2023-01-16T08:47:21;102811.63;;;14.87;85.02
61026;BME280;46911;32.650;-16.902;2023-01-16T08:49:45;102807.44;;;14.99;84.78
61026;BME280;46911;32.650;-16.902;2023-01-16T08:52:06;102803.09;;;14.96;84.20
61026;BME280;46911;32.650;-16.902;2023-01-16T08:54:09;102792.44;;;14.95;84.13
61026;BME280;46911;32.650;-16.902;2023-01-16T08:56:10;102807.13;;;15.05;84.21
61026;BME280;46911;32.650;-16.902;2023-01-16T08:58:11;102792.25;;;14.98;84.15
61026;BME280;46911;32.650;-16.902;2023-01-16T09:00:12;102801.75;;;15.05;84.05
61026;BME280;46911;32.650;-16.902;2023-01-16T09:02:13;102809.91;;;15.03;83.66
61026;BME280;46911;32.650;-16.902;2023-01-16T09:04:15;102816.50;;;15.14;83.54
61026;BME280;46911;32.650;-16.902;2023-01-16T09:06:16;102817.03;;;15.20;82.52
61026;BME280;46911;32.650;-16.902;2023-01-16T09:08:19;102817.78;;;15.40;80.35
61026;BME280;46911;32.650;-16.902;2023-01-16T09:10:23;102807.88;;;15.56;79.24
61026;BME280;46911;32.650;-16.902;2023-01-16T09:12:27;102825.44;;;15.80;78.37
61026;BME280;46911;32.650;-16.902;2023-01-16T09:14:46;102818.78;;;16.03;77.37
61026;BME280;46911;32.650;-16.902;2023-01-16T09:16:47;102827.78;;;16.18;77.04
61026;BME280;46911;32.650;-16.902;2023-01-16T09:18:51;102818.09;;;16.46;76.33
61026;BME280;46911;32.650;-16.902;2023-01-16T09:20:52;102813.28;;;16.51;76.86
61026;BME280;46911;32.650;-16.902;2023-01-16T09:23:00;102830.69;;;16.76;77.14
61026;BME280;46911;32.650;-16.902;2023-01-16T09:25:02;102830.09;;;16.85;77.04
61026;BME280;46911;32.650;-16.902;2023-01-16T09:27:05;102838.75;;;17.06;76.63
61026;BME280;46911;32.650;-16.902;2023-01-16T09:29:08;102828.66;;;17.24;76.17
61026;BME280;46911;32.650;-16.902;2023-01-16T09:31:12;102841.25;;;17.38;76.31
61026;BME280;46911;32.650;-16.902;2023-01-16T09:33:13;102830.94;;;17.45;75.25
61026;BME280;46911;32.650;-16.902;2023-01-16T09:35:16;102838.34;;;17.70;74.17
61026;BME280;46911;32.650;-16.902;2023-01-16T09:37:17;102826.75;;;17.82;73.36
61026;BME280;46911;32.650;-16.902;2023-01-16T09:39:19;102820.28;;;17.85;73.39
61026;BME280;46911;32.650;-16.902;2023-01-16T09:41:24;102844.00;;;17.94;73.21
61026;BME280;46911;32.650;-16.902;2023-01-16T09:43:47;102843.22;;;18.06;72.87
61026;BME280;46911;32.650;-16.902;2023-01-16T09:45:53;102843.03;;;17.95;72.48
61026;BME280;46911;32.650;-16.902;2023-01-16T09:48:04;102845.47;;;18.00;71.92
61026;BME280;46911;32.650;-16.902;2023-01-16T09:50:18;102840.81;;;18.02;71.42
61026;BME280;46911;32.650;-16.902;2023-01-16T09:52:26;102832.00;;;18.13;71.32
61026;BME280;46911;32.650;-16.902;2023-01-16T09:55:06;102839.66;;;18.46;70.11
61026;BME280;46911;32.650;-16.902;2023-01-16T09:57:31;102833.59;;;18.83;68.13
61026;BME280;46911;32.650;-16.902;2023-01-16T09:59:53;102843.13;;;19.27;65.99
61026;BME280;46911;32.650;-16.902;2023-01-16T10:02:05;102845.97;;;19.63;63.43
61026;BME280;46911;32.650;-16.902;2023-01-16T10:04:28;102846.66;;;20.03;62.13
61026;BME280;46911;32.650;-16.902;2023-01-16T10:06:37;102841.28;;;20.39;60.86
61026;BME280;46911;32.650;-16.902;2023-01-16T10:10:55;102840.63;;;22.62;55.54
61026;BME280;46911;32.650;-16.902;2023-01-16T10:16:10;102833.97;;;24.39;47.82
61026;BME280;46911;32.650;-16.902;2023-01-16T10:21:14;102832.50;;;26.59;43.03
61026;BME280;46911;32.650;-16.902;2023-01-16T10:30:10;102823.50;;;29.67;36.17
61026;BME280;46911;32.650;-16.902;2023-01-16T10:35:02;102834.84;;;30.27;34.20
61026;BME280;46911;32.650;-16.902;2023-01-16T10:37:01;102824.56;;;30.59;34.23
61026;BME280;46911;32.650;-16.902;2023-01-16T10:39:05;102815.22;;;30.45;32.88
61026;BME280;46911;32.650;-16.902;2023-01-16T10:43:38;102815.59;;;31.39;32.46
61026;BME280;46911;32.650;-16.902;2023-01-16T10:46:01;102830.22;;;31.55;31.81
61026;BME280;46911;32.650;-16.902;2023-01-16T10:48:27;102822.91;;;31.84;31.60
61026;BME280;46911;32.650;-16.902;2023-01-16T10:50:49;102823.31;;;31.44;31.85
61026;BME280;46911;32.650;-16.902;2023-01-16T10:52:51;102809.84;;;31.04;31.46
61026;BME280;46911;32.650;-16.902;2023-01-16T10:54:57;102817.84;;;30.61;32.47
61026;BME280;46911;32.650;-16.902;2023-01-16T10:56:59;102818.09;;;31.19;31.70
61026;BME280;46911;32.650;-16.902;2023-01-16T10:59:07;102818.91;;;31.50;31.61
61026;BME280;46911;32.650;-16.902;2023-01-16T11:01:16;102820.00;;;32.07;30.90
61026;BME280;46911;32.650;-16.902;2023-01-16T11:03:51;102813.13;;;32.18;30.43
61026;BME280;46911;32.650;-16.902;2023-01-16T11:06:07;102809.59;;;30.38;32.41
61026;BME280;46911;32.650;-16.902;2023-01-16T11:08:15;102817.59;;;31.31;31.96
61026;BME280;46911;32.650;-16.902;2023-01-16T11:10:21;102814.72;;;31.54;31.18
61026;BME280;46911;32.650;-16.902;2023-01-16T11:12:28;102824.53;;;32.36;30.15
61026;BME280;46911;32.650;-16.902;2023-01-16T11:14:50;102819.13;;;32.50;29.69
61026;BME280;46911;32.650;-16.902;2023-01-16T11:17:34;102818.56;;;32.61;29.10
61026;BME280;46911;32.650;-16.902;2023-01-16T11:19:55;102810.25;;;31.53;30.55
61026;BME280;46911;32.650;-16.902;2023-01-16T11:22:00;102825.38;;;31.42;31.56
61026;BME280;46911;32.650;-16.902;2023-01-16T11:24:21;102810.25;;;28.58;36.79
61026;BME280;46911;32.650;-16.902;2023-01-16T11:26:22;102803.78;;;27.16;39.79
61026;BME280;46911;32.650;-16.902;2023-01-16T11:28:29;102812.97;;;28.00;38.08
61026;BME280;46911;32.650;-16.902;2023-01-16T11:30:38;102815.38;;;28.86;35.54
61026;BME280;46911;32.650;-16.902;2023-01-16T11:32:39;102809.97;;;27.18;38.79
61026;BME280;46911;32.650;-16.902;2023-01-16T11:34:54;102810.44;;;28.48;36.47
61026;BME280;46911;32.650;-16.902;2023-01-16T11:37:03;102797.91;;;27.37;38.69
61026;BME280;46911;32.650;-16.902;2023-01-16T11:39:18;102810.97;;;28.52;36.09
61026;BME280;46911;32.650;-16.902;2023-01-16T11:41:28;102801.19;;;28.16;37.83
61026;BME280;46911;32.650;-16.902;2023-01-16T11:43:34;102803.34;;;24.74;44.57